Pacific Titan — WCZ6844 — position and weather

sailwx.info

Track history (hours):
 
Tides and Currents Weather Stations Pressure Air Temp Water Temp Dewpoint Dewpoint Depression Visibility Wind Speed Wind Dir Waves Ship Positions

Pacific Titan

Owner: WESTERN TOWBOAT CO, SEATTLE, WA. More information available from US FCC via Universal Licensing System and Coast Guard Vessel Documentation Center.

Last reported at 2017-Nov-19 12:05 UTC. Time now 2017-Nov-21 20:50 UTC.
Position N 51°15' W 127°53'.

Type: Tow > 200 m length. MMSI: 338855000.

Date/timePositionNaut miles runAvg speedWind from/ knotsBaromVisibWave heightAir tempDewpointWater temp
2017-Nov-19 12:05N 51°15' W 127°53'110.7
2017-Nov-19 11:59N 51°14' W 127°52'510.9
2017-Nov-19 11:30N 51°09' W 127°50'510.7
2017-Nov-19 11:00N 51°05' W 127°44'510.4
2017-Nov-19 10:30N 51°02' W 127°38'5 9.4
2017-Nov-19 10:00N 50°59' W 127°33'510.0
2017-Nov-19 09:30N 50°56' W 127°26'5 9.3
2017-Nov-19 09:00N 50°52' W 127°21'510.5
2017-Nov-19 08:29N 50°49' W 127°14'510.3
2017-Nov-19 08:00N 50°46' W 127°08'5 9.7
2017-Nov-19 07:29N 50°43' W 127°01'5 9.8
2017-Nov-19 07:00N 50°41' W 126°54'5 9.5
2017-Nov-19 06:28N 50°38' W 126°48'610.5
2017-Nov-19 05:56N 50°35' W 126°42'3611.2
2017-Nov-19 02:41N 50°23' W 125°48'213.4
2017-Nov-19 02:30N 50°22' W 125°44'912.1
2017-Nov-19 01:48N 50°21' W 125°31'311.6
2017-Nov-19 01:30N 50°20' W 125°26'4 9.0
2017-Nov-19 01:00N 50°16' W 125°24'5 9.9
2017-Nov-19 00:31N 50°11' W 125°22'4 7.8
2017-Nov-19 00:00N 50°07' W 125°20'2 4.5
2017-Nov-18 23:30N 50°06' W 125°17'2 4.3
2017-Nov-18 23:01N 50°04' W 125°15'2 4.5
2017-Nov-18 22:30N 50°02' W 125°13'2 4.2
2017-Nov-18 22:00N 50°00' W 125°12'2 3.4
2017-Nov-18 21:30N 49°59' W 125°11'3 5.4
2017-Nov-18 21:00N 49°57' W 125°08'2 4.8
2017-Nov-18 20:30N 49°56' W 125°05'1 2.4
2017-Nov-18 20:00N 49°55' W 125°04'3 6.9
2017-Nov-18 19:30N 49°52' W 124°60'4 7.2
2017-Nov-18 19:00N 49°50' W 124°55'4 8.1
2017-Nov-18 18:30N 49°47' W 124°51'4 8.0
2017-Nov-18 18:00N 49°45' W 124°46'5 9.9
2017-Nov-18 17:30N 49°42' W 124°40'510.5
2017-Nov-18 17:00N 49°38' W 124°34'510.5
2017-Nov-18 16:30N 49°35' W 124°27'510.2
2017-Nov-18 16:00N 49°33' W 124°20'910.7
2017-Nov-18 15:07N 49°28' W 124°07'210.5
2017-Nov-18 14:56N 49°27' W 124°05'1110.5
2017-Nov-18 13:55N 49°20' W 123°53'410.2
2017-Nov-18 13:29N 49°17' W 123°48'510.6
2017-Nov-18 13:00N 49°14' W 123°41'510.7
2017-Nov-18 12:30N 49°11' W 123°35'510.5
2017-Nov-18 12:00N 49°08' W 123°28'510.4
2017-Nov-18 11:30N 49°05' W 123°22'510.6
2017-Nov-18 11:00N 49°01' W 123°17'611.1
2017-Nov-18 10:26N 48°57' W 123°09'511.5
2017-Nov-18 10:00N 48°53' W 123°04'710.9
2017-Nov-18 09:24N 48°50' W 122°56'611.0
2017-Nov-18 08:53N 48°46' W 122°48'410.8
2017-Nov-18 08:30N 48°43' W 122°44'5 9.8
2017-Nov-18 08:00N 48°39' W 122°43'5 9.8
2017-Nov-18 07:30N 48°34' W 122°45'5 9.0
2017-Nov-18 07:00N 48°29' W 122°44'4 8.7
2017-Nov-18 06:30N 48°25' W 122°44'4 8.4
2017-Nov-18 06:00N 48°21' W 122°45'5 9.1
2017-Nov-18 05:24N 48°16' W 122°48'410.0
2017-Nov-18 05:00N 48°12' W 122°47'1012.9
2017-Nov-18 04:15N 48°04' W 122°38'413.7
2017-Nov-18 03:59N 48°00' W 122°36'612.7
2017-Nov-18 03:30N 47°56' W 122°30'611.5
2017-Nov-18 03:00N 47°51' W 122°27'611.1
2017-Nov-18 02:30N 47°45' W 122°26'511.0
2017-Nov-18 02:00N 47°40' W 122°27'5 9.9
2017-Nov-18 01:30N 47°36' W 122°22'2 3.7
2017-Nov-18 01:00N 47°34' W 122°21'1 2.9
2017-Nov-18 00:30N 47°33' W 122°21'0 0.0
2017-Nov-18 00:00N 47°33' W 122°21'0 0.1
2017-Nov-17 23:30N 47°33' W 122°20'0 0.6
2017-Nov-17 23:00N 47°33' W 122°20'0 0.0
2017-Nov-17 22:30N 47°33' W 122°20'0 0.0
2017-Nov-17 22:00N 47°33' W 122°20'0 0.1
2017-Nov-17 21:30N 47°33' W 122°20'0 0.0
2017-Nov-17 21:00N 47°33' W 122°20'0 0.0
2017-Nov-17 20:30N 47°33' W 122°20'0 0.0
2017-Nov-17 20:00N 47°33' W 122°20'0 0.0
2017-Nov-17 19:30N 47°33' W 122°20'0 0.0
2017-Nov-17 19:00N 47°33' W 122°20'0 0.0
2017-Nov-17 18:30N 47°33' W 122°20'0 0.0
2017-Nov-17 18:00N 47°33' W 122°20'0 0.0
2017-Nov-17 17:30N 47°33' W 122°20'0 0.0
2017-Nov-17 17:00N 47°33' W 122°20'0 0.0
2017-Nov-17 16:30N 47°33' W 122°20'0 0.0
2017-Nov-17 16:00N 47°33' W 122°20'0 0.0
2017-Nov-17 15:30N 47°33' W 122°20'0 0.0
2017-Nov-17 15:00N 47°33' W 122°20'0 0.0
2017-Nov-17 14:30N 47°33' W 122°20'0 0.0
2017-Nov-17 14:00N 47°33' W 122°20'0 0.0
2017-Nov-17 13:30N 47°33' W 122°20'0 0.0
2017-Nov-17 13:00N 47°33' W 122°20'0 0.0
2017-Nov-17 12:30N 47°33' W 122°20'0 0.0
2017-Nov-17 12:00N 47°33' W 122°20'0 0.0
2017-Nov-17 11:30N 47°33' W 122°20'0 0.0
2017-Nov-17 11:00N 47°33' W 122°20'0 0.0
2017-Nov-17 10:30N 47°33' W 122°20'0 0.2
2017-Nov-17 10:00N 47°33' W 122°20'0 0.2
2017-Nov-17 09:30N 47°33' W 122°20'0 0.0
2017-Nov-17 09:00N 47°33' W 122°20'0 0.0
2017-Nov-17 08:30N 47°33' W 122°20'0 0.0
2017-Nov-17 08:00N 47°33' W 122°20'0 0.0
2017-Nov-17 07:30N 47°33' W 122°20'0 0.0
2017-Nov-17 07:00N 47°33' W 122°20'0 0.0
2017-Nov-17 06:30N 47°33' W 122°20'0 0.0
2017-Nov-17 06:00N 47°33' W 122°20'0 0.0
2017-Nov-17 05:30N 47°33' W 122°20'0 0.0
2017-Nov-17 05:00N 47°33' W 122°20'0 0.0
2017-Nov-17 04:30N 47°33' W 122°20'0 0.0
2017-Nov-17 04:00N 47°33' W 122°20'0 0.0
2017-Nov-17 03:30N 47°33' W 122°20'0 0.0
2017-Nov-17 03:00N 47°33' W 122°20'0 0.0
2017-Nov-17 02:30N 47°33' W 122°20'0 0.0
2017-Nov-17 02:00N 47°33' W 122°20'0 0.0
2017-Nov-17 01:30N 47°33' W 122°20'0 0.0
2017-Nov-17 01:00N 47°33' W 122°20'0 0.0
2017-Nov-17 00:30N 47°33' W 122°20'0 0.0
2017-Nov-17 00:00N 47°33' W 122°20'0 0.0
2017-Nov-16 23:30N 47°33' W 122°20'0 0.0
2017-Nov-16 23:00N 47°33' W 122°20'0 0.0
2017-Nov-16 22:30N 47°33' W 122°20'0 0.0
2017-Nov-16 22:00N 47°33' W 122°20'0 0.0
2017-Nov-16 21:30N 47°33' W 122°20'0 0.0
2017-Nov-16 21:00N 47°33' W 122°20'0 0.0
2017-Nov-16 20:30N 47°33' W 122°20'0 0.0
2017-Nov-16 20:00N 47°33' W 122°20'0 0.0
2017-Nov-16 19:30N 47°33' W 122°20'0 0.0
2017-Nov-16 19:00N 47°33' W 122°20'0 0.0
2017-Nov-16 18:30N 47°33' W 122°20'0 0.0
2017-Nov-16 18:00N 47°33' W 122°20'0 0.0
2017-Nov-16 17:30N 47°33' W 122°20'0 0.0
2017-Nov-16 17:00N 47°33' W 122°20'0 0.0
2017-Nov-16 16:31N 47°33' W 122°20'0 0.0
2017-Nov-16 16:01N 47°33' W 122°20'0 0.0
2017-Nov-16 15:30N 47°33' W 122°20'0 0.0
2017-Nov-16 15:00N 47°33' W 122°20'0 0.0
2017-Nov-16 14:30N 47°33' W 122°20'0 0.0
2017-Nov-16 14:00N 47°33' W 122°20'0 0.0
2017-Nov-16 13:30N 47°33' W 122°20'0 0.0
2017-Nov-16 13:00N 47°33' W 122°20'0 0.0
2017-Nov-16 12:30N 47°33' W 122°20'0 0.0
2017-Nov-16 12:00N 47°33' W 122°20'0 0.0
2017-Nov-16 11:30N 47°33' W 122°20'0 0.0
2017-Nov-16 11:00N 47°33' W 122°20'0 0.0
2017-Nov-16 10:31N 47°33' W 122°20'0 0.1
2017-Nov-16 10:01N 47°33' W 122°20'0 0.1
2017-Nov-16 09:30N 47°33' W 122°20'0 0.0
2017-Nov-16 09:00N 47°33' W 122°20'0 0.0
2017-Nov-16 08:30N 47°33' W 122°20'0 0.0
2017-Nov-16 08:00N 47°33' W 122°20'0 0.0
2017-Nov-16 07:30N 47°33' W 122°20'0 0.0
2017-Nov-16 07:00N 47°33' W 122°20'0 0.0
2017-Nov-16 06:30N 47°33' W 122°20'0 0.0
2017-Nov-16 06:00N 47°33' W 122°20'0 0.0
2017-Nov-16 05:30N 47°33' W 122°20'0 0.0
2017-Nov-16 05:00N 47°33' W 122°20'0 0.0
2017-Nov-16 04:30N 47°33' W 122°20'0 0.0
2017-Nov-16 04:00N 47°33' W 122°20'0 0.0
2017-Nov-16 03:30N 47°33' W 122°20'0 0.0
2017-Nov-16 03:00N 47°33' W 122°20'0 0.0
2017-Nov-16 02:30N 47°33' W 122°20'0 0.0
2017-Nov-16 02:00N 47°33' W 122°20'0 0.0
2017-Nov-16 01:30N 47°33' W 122°20'0 0.0
2017-Nov-16 01:01N 47°33' W 122°20'0 0.0
2017-Nov-16 00:30N 47°33' W 122°20'0 0.0
2017-Nov-16 00:00N 47°33' W 122°20'0 0.0
2017-Nov-15 23:30N 47°33' W 122°20'0 0.0
2017-Nov-15 23:00N 47°33' W 122°20'0 0.0
2017-Nov-15 22:31N 47°33' W 122°20'0 0.0
2017-Nov-15 22:00N 47°33' W 122°20'0 0.0
2017-Nov-15 21:30N 47°33' W 122°20'0 0.0
2017-Nov-15 21:00N 47°33' W 122°20'0 0.0
2017-Nov-15 20:30N 47°33' W 122°20'0 0.0
2017-Nov-15 20:00N 47°33' W 122°20'0 0.0
2017-Nov-15 19:30N 47°33' W 122°20'0 0.0
2017-Nov-15 19:00N 47°33' W 122°20'0 0.0
2017-Nov-15 18:30N 47°33' W 122°20'0 0.0
2017-Nov-15 18:00N 47°33' W 122°20'0 0.0
2017-Nov-15 17:30N 47°33' W 122°20'0 0.0
2017-Nov-15 17:00N 47°33' W 122°20'0 0.0
2017-Nov-15 16:30N 47°33' W 122°20'0 0.0
2017-Nov-15 16:00N 47°33' W 122°20'0 0.0
2017-Nov-15 15:30N 47°33' W 122°20'0 0.0
2017-Nov-15 15:00N 47°33' W 122°20'0 0.0
2017-Nov-15 14:30N 47°33' W 122°20'0 0.0
2017-Nov-15 14:00N 47°33' W 122°20'0 0.0
2017-Nov-15 13:30N 47°33' W 122°20'0 0.0
2017-Nov-15 13:00N 47°33' W 122°20'0 0.0
2017-Nov-15 12:30N 47°33' W 122°20'0 0.0
2017-Nov-15 12:00N 47°33' W 122°20'0 0.0
2017-Nov-15 11:30N 47°33' W 122°20'0 0.0
2017-Nov-15 11:00N 47°33' W 122°20'0 0.0
2017-Nov-15 10:30N 47°33' W 122°20'0 0.0
2017-Nov-15 10:00N 47°33' W 122°20'0 0.0
2017-Nov-15 09:30N 47°33' W 122°20'0 0.0
2017-Nov-15 09:00N 47°33' W 122°20'0 0.0
2017-Nov-15 08:30N 47°33' W 122°20'0 0.0
2017-Nov-15 08:00N 47°33' W 122°20'0 0.0
2017-Nov-15 07:30N 47°33' W 122°20'0 0.0
2017-Nov-15 07:00N 47°33' W 122°20'0 0.0
2017-Nov-15 06:30N 47°33' W 122°20'0 0.0
2017-Nov-15 06:00N 47°33' W 122°20'0 0.0
2017-Nov-15 05:30N 47°33' W 122°20'0 0.0
2017-Nov-15 05:00N 47°33' W 122°20'0 0.0
2017-Nov-15 04:30N 47°33' W 122°20'0 0.0
2017-Nov-15 04:00N 47°33' W 122°20'0 0.0
2017-Nov-15 03:30N 47°33' W 122°20'0 0.0
2017-Nov-15 03:00N 47°33' W 122°20'0 0.0
2017-Nov-15 02:30N 47°33' W 122°20'0 0.0
2017-Nov-15 02:00N 47°33' W 122°20'0 0.0
2017-Nov-15 01:30N 47°33' W 122°20'0 0.0
2017-Nov-15 01:00N 47°33' W 122°20'0 0.0
2017-Nov-15 00:30N 47°33' W 122°20'0 0.0
2017-Nov-15 00:00N 47°33' W 122°20'0 0.0
2017-Nov-14 23:30N 47°33' W 122°20'0 0.0
2017-Nov-14 23:00N 47°33' W 122°20'0 0.0
2017-Nov-14 22:30N 47°33' W 122°20'0 0.0
2017-Nov-14 22:00N 47°33' W 122°20'0 0.0
2017-Nov-14 21:30N 47°33' W 122°20'0 1.0
2017-Nov-14 21:00N 47°33' W 122°21'2 4.2
2017-Nov-14 20:30N 47°35' W 122°21'0 0.1
2017-Nov-14 20:00N 47°35' W 122°21'0 0.0
2017-Nov-14 19:30N 47°35' W 122°21'0 0.0
2017-Nov-14 19:00N 47°35' W 122°21'0 0.0
2017-Nov-14 18:30N 47°35' W 122°21'0 0.0
2017-Nov-14 18:00N 47°35' W 122°21'0 0.0
2017-Nov-14 17:30N 47°35' W 122°21'0 0.0
2017-Nov-14 17:00N 47°35' W 122°21'0 0.0
2017-Nov-14 16:30N 47°35' W 122°21'0 0.1
2017-Nov-14 16:00N 47°35' W 122°21'2 4.4
2017-Nov-14 15:30N 47°33' W 122°20'0 0.9
2017-Nov-14 15:00N 47°33' W 122°20'0 0.0
2017-Nov-14 14:30N 47°33' W 122°20'0 0.0
2017-Nov-14 14:00N 47°33' W 122°20'0 0.0
2017-Nov-14 13:30N 47°33' W 122°20'0 0.0
2017-Nov-14 13:00N 47°33' W 122°20'0 0.0
2017-Nov-14 12:30N 47°33' W 122°20'0 0.0
2017-Nov-14 12:00N 47°33' W 122°20'0 0.0
2017-Nov-14 11:30N 47°33' W 122°20'0 0.0
2017-Nov-14 11:00N 47°33' W 122°20'0 0.0
2017-Nov-14 10:30N 47°33' W 122°20'0 0.0
2017-Nov-14 10:00N 47°33' W 122°20'0 0.0
2017-Nov-14 09:30N 47°33' W 122°20'0 0.0
2017-Nov-14 09:00N 47°33' W 122°20'0 0.0
2017-Nov-14 08:30N 47°33' W 122°20'0 0.0
2017-Nov-14 08:00N 47°33' W 122°20'0 0.0
2017-Nov-14 07:31N 47°33' W 122°20'0 0.0
2017-Nov-14 07:00N 47°33' W 122°20'0 0.0
2017-Nov-14 06:30N 47°33' W 122°20'0 0.0
2017-Nov-14 06:00N 47°33' W 122°20'0 0.0
2017-Nov-14 05:30N 47°33' W 122°20'1 2.7
2017-Nov-14 05:00N 47°34' W 122°21'1 2.6
2017-Nov-14 04:30N 47°35' W 122°21'2 3.3
2017-Nov-14 04:00N 47°37' W 122°23'0 0.9
2017-Nov-14 03:30N 47°37' W 122°23'4 7.4
2017-Nov-14 03:00N 47°39' W 122°27'3 6.2
2017-Nov-14 02:30N 47°42' W 122°28'4 7.1
2017-Nov-14 02:00N 47°46' W 122°27'4 7.2
2017-Nov-14 01:30N 47°49' W 122°28'3 7.0
2017-Nov-14 01:00N 47°53' W 122°29'3 6.5
2017-Nov-14 00:30N 47°55' W 122°31'4 6.8
2017-Nov-13 23:59N 47°58' W 122°35'3 5.6
2017-Nov-13 23:30N 48°00' W 122°37'10 6.0
2017-Nov-13 21:46N 48°09' W 122°45'157 7.9
2017-Nov-13 02:00N 50°08' W 125°21'3 6.7
2017-Nov-13 01:30N 50°11' W 125°22'1 2.7
2017-Nov-13 01:00N 50°13' W 125°22'2 3.0
2017-Nov-13 00:30N 50°14' W 125°23'2 3.2
2017-Nov-13 00:00N 50°16' W 125°23'2 3.2
2017-Nov-12 23:28N 50°17' W 125°25'1 3.1
2017-Nov-12 23:00N 50°18' W 125°25'2 3.0
2017-Nov-12 22:30N 50°17' W 125°24'3 6.1
2017-Nov-12 22:00N 50°14' W 125°23'1 2.3
2017-Nov-12 21:29N 50°15' W 125°24'2 3.8
2017-Nov-12 21:00N 50°17' W 125°25'3 5.7
2017-Nov-12 20:30N 50°20' W 125°25'3 5.8
2017-Nov-12 19:56N 50°21' W 125°30'7 6.9
2017-Nov-12 18:56N 50°22' W 125°41'2710.1
2017-Nov-12 16:18N 50°30' W 126°21'910.1
2017-Nov-12 15:26N 50°30' W 126°35'6 9.5
2017-Nov-12 14:46N 50°35' W 126°42'410.1
2017-Nov-12 14:23N 50°37' W 126°47'510.4
2017-Nov-12 13:56N 50°41' W 126°52'610.5
2017-Nov-12 13:22N 50°43' W 127°00'410.1
2017-Nov-12 12:59N 50°45' W 127°06'5 9.9
2017-Nov-12 12:30N 50°48' W 127°12'4 8.4
2017-Nov-12 12:00N 50°50' W 127°17'5 9.7
2017-Nov-12 11:30N 50°54' W 127°23'4 9.0
2017-Nov-12 11:00N 50°57' W 127°28'5 9.2
2017-Nov-12 10:30N 50°59' W 127°34'4 8.7
2017-Nov-12 10:00N 51°03' W 127°39'4 8.9
2017-Nov-12 09:30N 51°05' W 127°44'4 8.9
2017-Nov-12 09:00N 51°08' W 127°50'5 8.6
2017-Nov-12 08:28N 51°12' W 127°52'4 8.6
2017-Nov-12 08:00N 51°16' W 127°53'4 8.5
2017-Nov-12 07:30N 51°21' W 127°53'5 9.2
2017-Nov-12 07:00N 51°25' W 127°51'4 8.5
2017-Nov-12 06:30N 51°29' W 127°51'5 9.5
2017-Nov-12 06:00N 51°34' W 127°53'5 9.6
2017-Nov-12 05:30N 51°39' W 127°54'5 9.7
2017-Nov-12 05:00N 51°43' W 127°56'5 9.7
2017-Nov-12 04:30N 51°48' W 127°56'5 9.9
2017-Nov-12 04:00N 51°53' W 127°56'510.2
2017-Nov-12 03:30N 51°58' W 127°56'510.4
2017-Nov-12 03:00N 52°04' W 127°56'5 9.3
2017-Nov-12 02:29N 52°05' W 128°04'4 8.5
2017-Nov-12 02:00N 52°08' W 128°08'4 8.1
2017-Nov-12 01:29N 52°12' W 128°06'5 9.6
2017-Nov-12 00:59N 52°14' W 128°13'5 9.7
2017-Nov-12 00:30N 52°15' W 128°21'4 8.7
2017-Nov-12 00:00N 52°16' W 128°28'6 9.1
2017-Nov-11 23:21N 52°22' W 128°32'3 9.6
2017-Nov-11 23:00N 52°25' W 128°30'90 8.8
2017-Nov-11 12:45N 53°42' W 129°48'3 9.6
2017-Nov-11 12:28N 53°44' W 129°51'4 9.6
2017-Nov-11 12:00N 53°47' W 129°56'5 9.4
2017-Nov-11 11:30N 53°50' W 130°01'5 9.2
2017-Nov-11 11:00N 53°54' W 130°06'4 8.0
2017-Nov-11 10:30N 53°56' W 130°12'4 9.0
2017-Nov-11 10:00N 54°01' W 130°13'4 8.9
2017-Nov-11 09:30N 54°04' W 130°17'5 9.1
2017-Nov-11 09:00N 54°07' W 130°23'5 9.6
2017-Nov-11 08:30N 54°11' W 130°28'4 8.9
2017-Nov-11 08:01N 54°15' W 130°32'5 9.0
2017-Nov-11 07:30N 54°19' W 130°35'5 8.9
2017-Nov-11 06:59N 54°23' W 130°38'4 8.9
2017-Nov-11 06:30N 54°28' W 130°40'5 9.6
2017-Nov-11 06:00N 54°32' W 130°43'610.3
2017-Nov-11 05:24N 54°38' W 130°44'3 8.7
2017-Nov-11 05:00N 54°40' W 130°49'5 9.7
2017-Nov-11 04:30N 54°44' W 130°55'  
Track history (hours):
 
Tides and Currents Weather Stations Pressure Air Temp Water Temp Dewpoint Dewpoint Depression Visibility Wind Speed Wind Dir Waves Ship Positions

Pacific Titan

Owner: WESTERN TOWBOAT CO, SEATTLE, WA. More information available from US FCC via Universal Licensing System and Coast Guard Vessel Documentation Center.

Last reported at 2017-Nov-19 12:05 UTC. Time now 2017-Nov-21 20:50 UTC.
Position N 51°15' W 127°53'.

Type: Tow > 200 m length. MMSI: 338855000.

Date/timePositionNaut miles runAvg speedWind from/ knotsBaromVisibWave heightAir tempDewpointWater temp
2017-Nov-19 12:05N 51°15' W 127°53'110.7
2017-Nov-19 11:59N 51°14' W 127°52'510.9
2017-Nov-19 11:30N 51°09' W 127°50'510.7
2017-Nov-19 11:00N 51°05' W 127°44'510.4
2017-Nov-19 10:30N 51°02' W 127°38'5 9.4
2017-Nov-19 10:00N 50°59' W 127°33'510.0
2017-Nov-19 09:30N 50°56' W 127°26'5 9.3
2017-Nov-19 09:00N 50°52' W 127°21'510.5
2017-Nov-19 08:29N 50°49' W 127°14'510.3
2017-Nov-19 08:00N 50°46' W 127°08'5 9.7
2017-Nov-19 07:29N 50°43' W 127°01'5 9.8
2017-Nov-19 07:00N 50°41' W 126°54'5 9.5
2017-Nov-19 06:28N 50°38' W 126°48'610.5
2017-Nov-19 05:56N 50°35' W 126°42'3611.2
2017-Nov-19 02:41N 50°23' W 125°48'213.4
2017-Nov-19 02:30N 50°22' W 125°44'912.1
2017-Nov-19 01:48N 50°21' W 125°31'311.6
2017-Nov-19 01:30N 50°20' W 125°26'4 9.0
2017-Nov-19 01:00N 50°16' W 125°24'5 9.9
2017-Nov-19 00:31N 50°11' W 125°22'4 7.8
2017-Nov-19 00:00N 50°07' W 125°20'2 4.5
2017-Nov-18 23:30N 50°06' W 125°17'2 4.3
2017-Nov-18 23:01N 50°04' W 125°15'2 4.5
2017-Nov-18 22:30N 50°02' W 125°13'2 4.2
2017-Nov-18 22:00N 50°00' W 125°12'2 3.4
2017-Nov-18 21:30N 49°59' W 125°11'3 5.4
2017-Nov-18 21:00N 49°57' W 125°08'2 4.8
2017-Nov-18 20:30N 49°56' W 125°05'1 2.4
2017-Nov-18 20:00N 49°55' W 125°04'3 6.9
2017-Nov-18 19:30N 49°52' W 124°60'4 7.2
2017-Nov-18 19:00N 49°50' W 124°55'4 8.1
2017-Nov-18 18:30N 49°47' W 124°51'4 8.0
2017-Nov-18 18:00N 49°45' W 124°46'5 9.9
2017-Nov-18 17:30N 49°42' W 124°40'510.5
2017-Nov-18 17:00N 49°38' W 124°34'510.5
2017-Nov-18 16:30N 49°35' W 124°27'510.2
2017-Nov-18 16:00N 49°33' W 124°20'910.7
2017-Nov-18 15:07N 49°28' W 124°07'210.5
2017-Nov-18 14:56N 49°27' W 124°05'1110.5
2017-Nov-18 13:55N 49°20' W 123°53'410.2
2017-Nov-18 13:29N 49°17' W 123°48'510.6
2017-Nov-18 13:00N 49°14' W 123°41'510.7
2017-Nov-18 12:30N 49°11' W 123°35'510.5
2017-Nov-18 12:00N 49°08' W 123°28'510.4
2017-Nov-18 11:30N 49°05' W 123°22'510.6
2017-Nov-18 11:00N 49°01' W 123°17'611.1
2017-Nov-18 10:26N 48°57' W 123°09'511.5
2017-Nov-18 10:00N 48°53' W 123°04'710.9
2017-Nov-18 09:24N 48°50' W 122°56'611.0
2017-Nov-18 08:53N 48°46' W 122°48'410.8
2017-Nov-18 08:30N 48°43' W 122°44'5 9.8
2017-Nov-18 08:00N 48°39' W 122°43'5 9.8
2017-Nov-18 07:30N 48°34' W 122°45'5 9.0
2017-Nov-18 07:00N 48°29' W 122°44'4 8.7
2017-Nov-18 06:30N 48°25' W 122°44'4 8.4
2017-Nov-18 06:00N 48°21' W 122°45'5 9.1
2017-Nov-18 05:24N 48°16' W 122°48'410.0
2017-Nov-18 05:00N 48°12' W 122°47'1012.9
2017-Nov-18 04:15N 48°04' W 122°38'413.7
2017-Nov-18 03:59N 48°00' W 122°36'612.7
2017-Nov-18 03:30N 47°56' W 122°30'611.5
2017-Nov-18 03:00N 47°51' W 122°27'611.1
2017-Nov-18 02:30N 47°45' W 122°26'511.0
2017-Nov-18 02:00N 47°40' W 122°27'5 9.9
2017-Nov-18 01:30N 47°36' W 122°22'2 3.7
2017-Nov-18 01:00N 47°34' W 122°21'1 2.9
2017-Nov-18 00:30N 47°33' W 122°21'0 0.0
2017-Nov-18 00:00N 47°33' W 122°21'0 0.1
2017-Nov-17 23:30N 47°33' W 122°20'0 0.6
2017-Nov-17 23:00N 47°33' W 122°20'0 0.0
2017-Nov-17 22:30N 47°33' W 122°20'0 0.0
2017-Nov-17 22:00N 47°33' W 122°20'0 0.1
2017-Nov-17 21:30N 47°33' W 122°20'0 0.0
2017-Nov-17 21:00N 47°33' W 122°20'0 0.0
2017-Nov-17 20:30N 47°33' W 122°20'0 0.0
2017-Nov-17 20:00N 47°33' W 122°20'0 0.0
2017-Nov-17 19:30N 47°33' W 122°20'0 0.0
2017-Nov-17 19:00N 47°33' W 122°20'0 0.0
2017-Nov-17 18:30N 47°33' W 122°20'0 0.0
2017-Nov-17 18:00N 47°33' W 122°20'0 0.0
2017-Nov-17 17:30N 47°33' W 122°20'0 0.0
2017-Nov-17 17:00N 47°33' W 122°20'0 0.0
2017-Nov-17 16:30N 47°33' W 122°20'0 0.0
2017-Nov-17 16:00N 47°33' W 122°20'0 0.0
2017-Nov-17 15:30N 47°33' W 122°20'0 0.0
2017-Nov-17 15:00N 47°33' W 122°20'0 0.0
2017-Nov-17 14:30N 47°33' W 122°20'0 0.0
2017-Nov-17 14:00N 47°33' W 122°20'0 0.0
2017-Nov-17 13:30N 47°33' W 122°20'0 0.0
2017-Nov-17 13:00N 47°33' W 122°20'0 0.0
2017-Nov-17 12:30N 47°33' W 122°20'0 0.0
2017-Nov-17 12:00N 47°33' W 122°20'0 0.0
2017-Nov-17 11:30N 47°33' W 122°20'0 0.0
2017-Nov-17 11:00N 47°33' W 122°20'0 0.0
2017-Nov-17 10:30N 47°33' W 122°20'0 0.2
2017-Nov-17 10:00N 47°33' W 122°20'0 0.2
2017-Nov-17 09:30N 47°33' W 122°20'0 0.0
2017-Nov-17 09:00N 47°33' W 122°20'0 0.0
2017-Nov-17 08:30N 47°33' W 122°20'0 0.0
2017-Nov-17 08:00N 47°33' W 122°20'0 0.0
2017-Nov-17 07:30N 47°33' W 122°20'0 0.0
2017-Nov-17 07:00N 47°33' W 122°20'0 0.0
2017-Nov-17 06:30N 47°33' W 122°20'0 0.0
2017-Nov-17 06:00N 47°33' W 122°20'0 0.0
2017-Nov-17 05:30N 47°33' W 122°20'0 0.0
2017-Nov-17 05:00N 47°33' W 122°20'0 0.0
2017-Nov-17 04:30N 47°33' W 122°20'0 0.0
2017-Nov-17 04:00N 47°33' W 122°20'0 0.0
2017-Nov-17 03:30N 47°33' W 122°20'0 0.0
2017-Nov-17 03:00N 47°33' W 122°20'0 0.0
2017-Nov-17 02:30N 47°33' W 122°20'0 0.0
2017-Nov-17 02:00N 47°33' W 122°20'0 0.0
2017-Nov-17 01:30N 47°33' W 122°20'0 0.0
2017-Nov-17 01:00N 47°33' W 122°20'0 0.0
2017-Nov-17 00:30N 47°33' W 122°20'0 0.0
2017-Nov-17 00:00N 47°33' W 122°20'0 0.0
2017-Nov-16 23:30N 47°33' W 122°20'0 0.0
2017-Nov-16 23:00N 47°33' W 122°20'0 0.0
2017-Nov-16 22:30N 47°33' W 122°20'0 0.0
2017-Nov-16 22:00N 47°33' W 122°20'0 0.0
2017-Nov-16 21:30N 47°33' W 122°20'0 0.0
2017-Nov-16 21:00N 47°33' W 122°20'0 0.0
2017-Nov-16 20:30N 47°33' W 122°20'0 0.0
2017-Nov-16 20:00N 47°33' W 122°20'0 0.0
2017-Nov-16 19:30N 47°33' W 122°20'0 0.0
2017-Nov-16 19:00N 47°33' W 122°20'0 0.0
2017-Nov-16 18:30N 47°33' W 122°20'0 0.0
2017-Nov-16 18:00N 47°33' W 122°20'0 0.0
2017-Nov-16 17:30N 47°33' W 122°20'0 0.0
2017-Nov-16 17:00N 47°33' W 122°20'0 0.0
2017-Nov-16 16:31N 47°33' W 122°20'0 0.0
2017-Nov-16 16:01N 47°33' W 122°20'0 0.0
2017-Nov-16 15:30N 47°33' W 122°20'0 0.0
2017-Nov-16 15:00N 47°33' W 122°20'0 0.0
2017-Nov-16 14:30N 47°33' W 122°20'0 0.0
2017-Nov-16 14:00N 47°33' W 122°20'0 0.0
2017-Nov-16 13:30N 47°33' W 122°20'0 0.0
2017-Nov-16 13:00N 47°33' W 122°20'0 0.0
2017-Nov-16 12:30N 47°33' W 122°20'0 0.0
2017-Nov-16 12:00N 47°33' W 122°20'0 0.0
2017-Nov-16 11:30N 47°33' W 122°20'0 0.0
2017-Nov-16 11:00N 47°33' W 122°20'0 0.0
2017-Nov-16 10:31N 47°33' W 122°20'0 0.1
2017-Nov-16 10:01N 47°33' W 122°20'0 0.1
2017-Nov-16 09:30N 47°33' W 122°20'0 0.0
2017-Nov-16 09:00N 47°33' W 122°20'0 0.0
2017-Nov-16 08:30N 47°33' W 122°20'0 0.0
2017-Nov-16 08:00N 47°33' W 122°20'0 0.0
2017-Nov-16 07:30N 47°33' W 122°20'0 0.0
2017-Nov-16 07:00N 47°33' W 122°20'0 0.0
2017-Nov-16 06:30N 47°33' W 122°20'0 0.0
2017-Nov-16 06:00N 47°33' W 122°20'0 0.0
2017-Nov-16 05:30N 47°33' W 122°20'0 0.0
2017-Nov-16 05:00N 47°33' W 122°20'0 0.0
2017-Nov-16 04:30N 47°33' W 122°20'0 0.0
2017-Nov-16 04:00N 47°33' W 122°20'0 0.0
2017-Nov-16 03:30N 47°33' W 122°20'0 0.0
2017-Nov-16 03:00N 47°33' W 122°20'0 0.0
2017-Nov-16 02:30N 47°33' W 122°20'0 0.0
2017-Nov-16 02:00N 47°33' W 122°20'0 0.0
2017-Nov-16 01:30N 47°33' W 122°20'0 0.0
2017-Nov-16 01:01N 47°33' W 122°20'0 0.0
2017-Nov-16 00:30N 47°33' W 122°20'0 0.0
2017-Nov-16 00:00N 47°33' W 122°20'0 0.0
2017-Nov-15 23:30N 47°33' W 122°20'0 0.0
2017-Nov-15 23:00N 47°33' W 122°20'0 0.0
2017-Nov-15 22:31N 47°33' W 122°20'0 0.0
2017-Nov-15 22:00N 47°33' W 122°20'0 0.0
2017-Nov-15 21:30N 47°33' W 122°20'0 0.0
2017-Nov-15 21:00N 47°33' W 122°20'0 0.0
2017-Nov-15 20:30N 47°33' W 122°20'0 0.0
2017-Nov-15 20:00N 47°33' W 122°20'0 0.0
2017-Nov-15 19:30N 47°33' W 122°20'0 0.0
2017-Nov-15 19:00N 47°33' W 122°20'0 0.0
2017-Nov-15 18:30N 47°33' W 122°20'0 0.0
2017-Nov-15 18:00N 47°33' W 122°20'0 0.0
2017-Nov-15 17:30N 47°33' W 122°20'0 0.0
2017-Nov-15 17:00N 47°33' W 122°20'0 0.0
2017-Nov-15 16:30N 47°33' W 122°20'0 0.0
2017-Nov-15 16:00N 47°33' W 122°20'0 0.0
2017-Nov-15 15:30N 47°33' W 122°20'0 0.0
2017-Nov-15 15:00N 47°33' W 122°20'0 0.0
2017-Nov-15 14:30N 47°33' W 122°20'0 0.0
2017-Nov-15 14:00N 47°33' W 122°20'0 0.0
2017-Nov-15 13:30N 47°33' W 122°20'0 0.0
2017-Nov-15 13:00N 47°33' W 122°20'0 0.0
2017-Nov-15 12:30N 47°33' W 122°20'0 0.0
2017-Nov-15 12:00N 47°33' W 122°20'0 0.0
2017-Nov-15 11:30N 47°33' W 122°20'0 0.0
2017-Nov-15 11:00N 47°33' W 122°20'0 0.0
2017-Nov-15 10:30N 47°33' W 122°20'0 0.0
2017-Nov-15 10:00N 47°33' W 122°20'0 0.0
2017-Nov-15 09:30N 47°33' W 122°20'0 0.0
2017-Nov-15 09:00N 47°33' W 122°20'0 0.0
2017-Nov-15 08:30N 47°33' W 122°20'0 0.0
2017-Nov-15 08:00N 47°33' W 122°20'0 0.0
2017-Nov-15 07:30N 47°33' W 122°20'0 0.0
2017-Nov-15 07:00N 47°33' W 122°20'0 0.0
2017-Nov-15 06:30N 47°33' W 122°20'0 0.0
2017-Nov-15 06:00N 47°33' W 122°20'0 0.0
2017-Nov-15 05:30N 47°33' W 122°20'0 0.0
2017-Nov-15 05:00N 47°33' W 122°20'0 0.0
2017-Nov-15 04:30N 47°33' W 122°20'0 0.0
2017-Nov-15 04:00N 47°33' W 122°20'0 0.0
2017-Nov-15 03:30N 47°33' W 122°20'0 0.0
2017-Nov-15 03:00N 47°33' W 122°20'0 0.0
2017-Nov-15 02:30N 47°33' W 122°20'0 0.0
2017-Nov-15 02:00N 47°33' W 122°20'0 0.0
2017-Nov-15 01:30N 47°33' W 122°20'0 0.0
2017-Nov-15 01:00N 47°33' W 122°20'0 0.0
2017-Nov-15 00:30N 47°33' W 122°20'0 0.0
2017-Nov-15 00:00N 47°33' W 122°20'0 0.0
2017-Nov-14 23:30N 47°33' W 122°20'0 0.0
2017-Nov-14 23:00N 47°33' W 122°20'0 0.0
2017-Nov-14 22:30N 47°33' W 122°20'0 0.0
2017-Nov-14 22:00N 47°33' W 122°20'0 0.0
2017-Nov-14 21:30N 47°33' W 122°20'0 1.0
2017-Nov-14 21:00N 47°33' W 122°21'2 4.2
2017-Nov-14 20:30N 47°35' W 122°21'0 0.1
2017-Nov-14 20:00N 47°35' W 122°21'0 0.0
2017-Nov-14 19:30N 47°35' W 122°21'0 0.0
2017-Nov-14 19:00N 47°35' W 122°21'0 0.0
2017-Nov-14 18:30N 47°35' W 122°21'0 0.0
2017-Nov-14 18:00N 47°35' W 122°21'0 0.0
2017-Nov-14 17:30N 47°35' W 122°21'0 0.0
2017-Nov-14 17:00N 47°35' W 122°21'0 0.0
2017-Nov-14 16:30N 47°35' W 122°21'0 0.1
2017-Nov-14 16:00N 47°35' W 122°21'2 4.4
2017-Nov-14 15:30N 47°33' W 122°20'0 0.9
2017-Nov-14 15:00N 47°33' W 122°20'0 0.0
2017-Nov-14 14:30N 47°33' W 122°20'0 0.0
2017-Nov-14 14:00N 47°33' W 122°20'0 0.0
2017-Nov-14 13:30N 47°33' W 122°20'0 0.0
2017-Nov-14 13:00N 47°33' W 122°20'0 0.0
2017-Nov-14 12:30N 47°33' W 122°20'0 0.0
2017-Nov-14 12:00N 47°33' W 122°20'0 0.0
2017-Nov-14 11:30N 47°33' W 122°20'0 0.0
2017-Nov-14 11:00N 47°33' W 122°20'0 0.0
2017-Nov-14 10:30N 47°33' W 122°20'0 0.0
2017-Nov-14 10:00N 47°33' W 122°20'0 0.0
2017-Nov-14 09:30N 47°33' W 122°20'0 0.0
2017-Nov-14 09:00N 47°33' W 122°20'0 0.0
2017-Nov-14 08:30N 47°33' W 122°20'0 0.0
2017-Nov-14 08:00N 47°33' W 122°20'0 0.0
2017-Nov-14 07:31N 47°33' W 122°20'0 0.0
2017-Nov-14 07:00N 47°33' W 122°20'0 0.0
2017-Nov-14 06:30N 47°33' W 122°20'0 0.0
2017-Nov-14 06:00N 47°33' W 122°20'0 0.0
2017-Nov-14 05:30N 47°33' W 122°20'1 2.7
2017-Nov-14 05:00N 47°34' W 122°21'1 2.6
2017-Nov-14 04:30N 47°35' W 122°21'2 3.3
2017-Nov-14 04:00N 47°37' W 122°23'0 0.9
2017-Nov-14 03:30N 47°37' W 122°23'4 7.4
2017-Nov-14 03:00N 47°39' W 122°27'3 6.2
2017-Nov-14 02:30N 47°42' W 122°28'4 7.1
2017-Nov-14 02:00N 47°46' W 122°27'4 7.2
2017-Nov-14 01:30N 47°49' W 122°28'3 7.0
2017-Nov-14 01:00N 47°53' W 122°29'3 6.5
2017-Nov-14 00:30N 47°55' W 122°31'4 6.8
2017-Nov-13 23:59N 47°58' W 122°35'3 5.6
2017-Nov-13 23:30N 48°00' W 122°37'10 6.0
2017-Nov-13 21:46N 48°09' W 122°45'157 7.9
2017-Nov-13 02:00N 50°08' W 125°21'3 6.7
2017-Nov-13 01:30N 50°11' W 125°22'1 2.7
2017-Nov-13 01:00N 50°13' W 125°22'2 3.0
2017-Nov-13 00:30N 50°14' W 125°23'2 3.2
2017-Nov-13 00:00N 50°16' W 125°23'2 3.2
2017-Nov-12 23:28N 50°17' W 125°25'1 3.1
2017-Nov-12 23:00N 50°18' W 125°25'2 3.0
2017-Nov-12 22:30N 50°17' W 125°24'3 6.1
2017-Nov-12 22:00N 50°14' W 125°23'1 2.3
2017-Nov-12 21:29N 50°15' W 125°24'2 3.8
2017-Nov-12 21:00N 50°17' W 125°25'3 5.7
2017-Nov-12 20:30N 50°20' W 125°25'3 5.8
2017-Nov-12 19:56N 50°21' W 125°30'7 6.9
2017-Nov-12 18:56N 50°22' W 125°41'2710.1
2017-Nov-12 16:18N 50°30' W 126°21'910.1
2017-Nov-12 15:26N 50°30' W 126°35'6 9.5
2017-Nov-12 14:46N 50°35' W 126°42'410.1
2017-Nov-12 14:23N 50°37' W 126°47'510.4
2017-Nov-12 13:56N 50°41' W 126°52'610.5
2017-Nov-12 13:22N 50°43' W 127°00'410.1
2017-Nov-12 12:59N 50°45' W 127°06'5 9.9
2017-Nov-12 12:30N 50°48' W 127°12'4 8.4
2017-Nov-12 12:00N 50°50' W 127°17'5 9.7
2017-Nov-12 11:30N 50°54' W 127°23'4 9.0
2017-Nov-12 11:00N 50°57' W 127°28'5 9.2
2017-Nov-12 10:30N 50°59' W 127°34'4 8.7
2017-Nov-12 10:00N 51°03' W 127°39'4 8.9
2017-Nov-12 09:30N 51°05' W 127°44'4 8.9
2017-Nov-12 09:00N 51°08' W 127°50'5 8.6
2017-Nov-12 08:28N 51°12' W 127°52'4 8.6
2017-Nov-12 08:00N 51°16' W 127°53'4 8.5
2017-Nov-12 07:30N 51°21' W 127°53'5 9.2
2017-Nov-12 07:00N 51°25' W 127°51'4 8.5
2017-Nov-12 06:30N 51°29' W 127°51'5 9.5
2017-Nov-12 06:00N 51°34' W 127°53'5 9.6
2017-Nov-12 05:30N 51°39' W 127°54'5 9.7
2017-Nov-12 05:00N 51°43' W 127°56'5 9.7
2017-Nov-12 04:30N 51°48' W 127°56'5 9.9
2017-Nov-12 04:00N 51°53' W 127°56'510.2
2017-Nov-12 03:30N 51°58' W 127°56'510.4
2017-Nov-12 03:00N 52°04' W 127°56'5 9.3
2017-Nov-12 02:29N 52°05' W 128°04'4 8.5
2017-Nov-12 02:00N 52°08' W 128°08'4 8.1
2017-Nov-12 01:29N 52°12' W 128°06'5 9.6
2017-Nov-12 00:59N 52°14' W 128°13'5 9.7
2017-Nov-12 00:30N 52°15' W 128°21'4 8.7
2017-Nov-12 00:00N 52°16' W 128°28'6 9.1
2017-Nov-11 23:21N 52°22' W 128°32'3 9.6
2017-Nov-11 23:00N 52°25' W 128°30'90 8.8
2017-Nov-11 12:45N 53°42' W 129°48'3 9.6
2017-Nov-11 12:28N 53°44' W 129°51'4 9.6
2017-Nov-11 12:00N 53°47' W 129°56'5 9.4
2017-Nov-11 11:30N 53°50' W 130°01'5 9.2
2017-Nov-11 11:00N 53°54' W 130°06'4 8.0
2017-Nov-11 10:30N 53°56' W 130°12'4 9.0
2017-Nov-11 10:00N 54°01' W 130°13'4 8.9
2017-Nov-11 09:30N 54°04' W 130°17'5 9.1
2017-Nov-11 09:00N 54°07' W 130°23'5 9.6
2017-Nov-11 08:30N 54°11' W 130°28'4 8.9
2017-Nov-11 08:01N 54°15' W 130°32'5 9.0
2017-Nov-11 07:30N 54°19' W 130°35'5 8.9
2017-Nov-11 06:59N 54°23' W 130°38'4 8.9
2017-Nov-11 06:30N 54°28' W 130°40'5 9.6
2017-Nov-11 06:00N 54°32' W 130°43'610.3
2017-Nov-11 05:24N 54°38' W 130°44'3 8.7
2017-Nov-11 05:00N 54°40' W 130°49'5 9.7
2017-Nov-11 04:30N 54°44' W 130°55'  

Dump ship's entire track history